createdAt,value
2023-04-03T00:01:02.187Z,4.16
2023-04-03T00:02:03.949Z,4.16
2023-04-03T00:03:06.906Z,4.16
2023-04-03T00:04:09.032Z,4.15
2023-04-03T00:05:11.757Z,4.16
2023-04-03T00:06:14.138Z,4.14
2023-04-03T00:07:16.839Z,4.15
2023-04-03T00:08:18.578Z,4.15
2023-04-03T00:09:21.452Z,4.14
2023-04-03T00:10:23.387Z,4.13
2023-04-03T00:11:27.458Z,4.13
2023-04-03T00:12:30.986Z,4.13
2023-04-03T00:13:34.477Z,4.13
2023-04-03T00:14:36.200Z,4.11
2023-04-03T00:15:39.717Z,4.09
2023-04-03T00:16:41.493Z,4.09
2023-04-03T00:17:44.249Z,4.08
2023-04-03T00:18:45.941Z,4.09
2023-04-03T00:19:48.554Z,4.08
2023-04-03T00:20:50.499Z,4.08
2023-04-03T00:21:54.511Z,4.08
2023-04-03T00:22:56.531Z,4.07
2023-04-03T00:23:59.269Z,4.06
2023-04-03T00:25:01.103Z,4.05
2023-04-03T00:26:05.239Z,4.04
2023-04-03T00:27:08.339Z,4.05
2023-04-03T00:28:11.324Z,4.03
2023-04-03T00:29:13.170Z,4.03
2023-04-03T00:30:18.376Z,4.03
2023-04-03T00:31:20.163Z,4.02
2023-04-03T00:32:23.103Z,4.01
2023-04-03T00:33:25.692Z,4.01
2023-04-03T00:34:28.555Z,3.99
2023-04-03T00:35:30.675Z,3.99
2023-04-03T00:36:33.567Z,3.96
2023-04-03T00:37:35.438Z,3.96
2023-04-03T00:38:38.551Z,3.95
2023-04-03T00:39:40.388Z,3.93
2023-04-03T00:40:45.536Z,3.93
2023-04-03T00:41:47.629Z,3.93
2023-04-03T00:42:57.064Z,3.93
2023-04-03T00:43:58.785Z,3.93
2023-04-03T00:45:28.449Z,3.93
2023-04-03T00:46:31.167Z,3.94
2023-04-03T00:47:33.224Z,3.93
2023-04-03T00:48:38.775Z,3.94
2023-04-03T00:49:41.107Z,3.94
2023-04-03T00:50:44.834Z,3.94
2023-04-03T00:51:47.639Z,3.94
2023-04-03T00:52:50.116Z,3.92
2023-04-03T00:53:54.938Z,3.93
2023-04-03T00:54:59.588Z,3.93
2023-04-03T00:56:02.691Z,3.93
2023-04-03T00:57:04.601Z,3.91
2023-04-03T00:58:10.262Z,3.91
2023-04-03T00:59:14.836Z,3.90
2023-04-03T01:00:20.082Z,3.89
2023-04-03T01:01:25.016Z,3.88
2023-04-03T01:02:27.127Z,3.87
2023-04-03T01:03:29.887Z,3.88
2023-04-03T01:04:33.619Z,3.87
2023-04-03T01:05:36.471Z,3.87
2023-04-03T01:06:38.810Z,3.86
2023-04-03T01:07:42.044Z,3.85
2023-04-03T01:08:45.048Z,3.85
2023-04-03T01:09:48.455Z,3.84
2023-04-03T01:10:51.341Z,3.85
2023-04-03T01:11:53.064Z,3.84
2023-04-03T01:12:55.742Z,3.84
2023-04-03T01:13:58.821Z,3.85
2023-04-03T01:15:02.837Z,3.85
2023-04-03T01:16:07.273Z,3.85
2023-04-03T01:17:27.900Z,3.84
2023-04-03T01:18:31.083Z,3.83
2023-04-03T01:19:36.188Z,3.84
2023-04-03T01:21:17.799Z,3.85
2023-04-03T01:22:20.913Z,3.83
2023-04-03T01:23:29.238Z,3.84
2023-04-03T01:24:36.583Z,3.84
2023-04-03T01:25:40.630Z,3.83
2023-04-03T01:26:43.408Z,3.83
2023-04-03T01:27:45.076Z,3.83
2023-04-03T01:28:47.816Z,3.84
2023-04-03T01:29:51.038Z,3.82
2023-04-03T01:30:59.954Z,3.84
2023-04-03T01:32:06.498Z,3.82
2023-04-03T01:33:09.267Z,3.83
2023-04-03T01:34:11.024Z,3.81
2023-04-03T01:35:17.092Z,3.79
2023-04-03T01:36:20.697Z,3.80
2023-04-03T01:37:23.415Z,3.80
2023-04-03T01:38:25.455Z,3.79
2023-04-03T01:39:28.230Z,3.80
2023-04-03T01:40:33.025Z,3.79
2023-04-03T01:41:35.722Z,3.80
2023-04-03T01:42:37.473Z,3.82
2023-04-03T01:43:40.497Z,3.82
2023-04-03T01:44:42.221Z,3.84
2023-04-03T01:45:45.323Z,3.86
2023-04-03T01:46:47.521Z,3.88
2023-04-03T01:47:52.097Z,3.90
2023-04-03T01:48:54.113Z,3.92
2023-04-03T01:49:56.979Z,3.92
2023-04-03T01:50:58.688Z,3.92
2023-04-03T01:52:01.422Z,3.93
2023-04-03T01:53:03.253Z,3.94
2023-04-03T01:54:06.322Z,3.95
2023-04-03T01:55:08.818Z,3.97
2023-04-03T01:56:11.776Z,3.99
2023-04-03T01:57:14.679Z,4.00
2023-04-03T01:58:17.826Z,4.01
2023-04-03T01:59:20.250Z,4.02
2023-04-03T02:00:23.083Z,4.03
2023-04-03T02:01:24.834Z,4.03
2023-04-03T02:02:27.536Z,4.03
2023-04-03T02:03:31.880Z,4.03
2023-04-03T02:04:34.638Z,4.03
2023-04-03T02:05:36.502Z,4.04
2023-04-03T02:06:39.520Z,4.01
2023-04-03T02:07:41.366Z,4.01
2023-04-03T02:08:44.049Z,3.99
2023-04-03T02:09:46.052Z,3.98
2023-04-03T02:10:49.441Z,3.98
2023-04-03T02:11:51.157Z,3.97
2023-04-03T02:12:54.071Z,3.94
2023-04-03T02:13:56.006Z,3.95
2023-04-03T02:14:58.617Z,3.94
2023-04-03T02:16:00.345Z,3.93
2023-04-03T02:17:05.894Z,3.93
2023-04-03T02:18:08.114Z,3.91
2023-04-03T02:19:12.335Z,3.91
2023-04-03T02:20:14.057Z,3.90
2023-04-03T02:21:16.718Z,3.90
2023-04-03T02:22:18.440Z,3.89
2023-04-03T02:23:21.103Z,3.90
2023-04-03T02:24:23.137Z,3.91
2023-04-03T02:25:25.895Z,3.89
2023-04-03T02:26:27.847Z,3.90
2023-04-03T02:27:30.530Z,3.89
2023-04-03T02:28:32.302Z,3.89
2023-04-03T02:29:35.174Z,3.89
2023-04-03T02:30:37.215Z,3.87
2023-04-03T02:31:40.190Z,3.88
2023-04-03T02:32:42.108Z,3.89
2023-04-03T02:33:44.822Z,3.87
2023-04-03T02:34:47.912Z,3.87
2023-04-03T02:35:55.033Z,3.86
2023-04-03T02:36:57.094Z,3.86
2023-04-03T02:37:59.836Z,3.87
2023-04-03T02:39:01.533Z,3.86
2023-04-03T02:40:05.917Z,3.86
2023-04-03T02:41:09.254Z,3.87
2023-04-03T02:42:11.916Z,3.88
2023-04-03T02:43:13.607Z,3.87
2023-04-03T02:44:16.312Z,3.86
2023-04-03T02:45:18.031Z,3.87
2023-04-03T02:46:20.727Z,3.87
2023-04-03T02:47:22.568Z,3.88
2023-04-03T02:48:25.793Z,3.89
2023-04-03T02:49:27.497Z,3.88
2023-04-03T02:50:31.501Z,3.88
2023-04-03T02:51:33.355Z,3.88
2023-04-03T02:52:36.517Z,3.87
2023-04-03T02:53:38.168Z,3.87
2023-04-03T02:54:40.872Z,3.87
2023-04-03T02:55:42.865Z,3.87
2023-04-03T02:56:45.547Z,3.87
2023-04-03T02:57:47.222Z,3.88
2023-04-03T02:58:50.029Z,3.89
2023-04-03T02:59:51.837Z,3.88
2023-04-03T03:00:54.502Z,3.88
2023-04-03T03:01:56.811Z,3.89
2023-04-03T03:02:59.673Z,3.87
2023-04-03T03:04:02.026Z,3.87
2023-04-03T03:05:05.151Z,3.86
2023-04-03T03:06:10.761Z,3.85
2023-04-03T03:07:13.426Z,3.84
2023-04-03T03:08:15.503Z,3.85
2023-04-03T03:09:18.302Z,3.82
2023-04-03T03:10:20.269Z,3.82
2023-04-03T03:11:23.056Z,3.80
2023-04-03T03:12:25.794Z,3.80
2023-04-03T03:13:27.706Z,3.78
2023-04-03T03:14:30.353Z,3.79
2023-04-03T03:15:32.175Z,3.78
2023-04-03T03:16:34.950Z,3.77
2023-04-03T03:17:37.240Z,3.76
2023-04-03T03:18:39.950Z,3.79
2023-04-03T03:19:41.746Z,3.75
2023-04-03T03:20:44.461Z,3.74
2023-04-03T03:21:47.485Z,3.73
2023-04-03T03:22:50.271Z,3.74
2023-04-03T03:23:52.012Z,3.74
2023-04-03T03:24:54.695Z,3.72
2023-04-03T03:25:57.035Z,3.70
2023-04-03T03:26:59.730Z,3.70
2023-04-03T03:28:01.466Z,3.69
2023-04-03T03:29:04.252Z,3.70
2023-04-03T03:30:07.430Z,3.68
2023-04-03T03:31:11.099Z,3.66
2023-04-03T03:32:12.789Z,3.66
2023-04-03T03:33:15.537Z,3.67
2023-04-03T03:34:17.280Z,3.66
2023-04-03T03:35:19.939Z,3.67
2023-04-03T03:36:22.702Z,3.67
2023-04-03T03:37:25.776Z,3.65
2023-04-03T03:38:28.716Z,3.62
2023-04-03T03:39:30.420Z,3.62
2023-04-03T03:40:33.109Z,3.60
2023-04-03T03:41:35.909Z,3.61
2023-04-03T03:42:37.670Z,3.60
2023-04-03T03:43:40.405Z,3.59
2023-04-03T03:44:42.127Z,3.59
2023-04-03T03:45:44.839Z,3.59
2023-04-03T03:46:46.558Z,3.59
2023-04-03T03:47:49.282Z,3.58
2023-04-03T03:48:51.066Z,3.56
2023-04-03T03:49:53.758Z,3.56
2023-04-03T03:50:55.464Z,3.54
2023-04-03T03:51:58.108Z,3.53
2023-04-03T03:53:01.263Z,3.55
2023-04-03T03:54:03.933Z,3.53
2023-04-03T03:55:06.060Z,3.52
2023-04-03T03:56:09.122Z,3.53
2023-04-03T03:57:10.952Z,3.52
2023-04-03T03:58:13.719Z,3.51
2023-04-03T03:59:15.455Z,3.49
2023-04-03T04:00:18.593Z,3.47
2023-04-03T04:01:20.506Z,3.47
2023-04-03T04:02:23.282Z,3.47
2023-04-03T04:03:25.271Z,3.46
2023-04-03T04:04:28.052Z,3.47
2023-04-03T04:05:29.765Z,3.47
2023-04-03T04:06:32.439Z,3.46
2023-04-03T04:07:34.140Z,3.45
2023-04-03T04:08:38.258Z,3.45
2023-04-03T04:09:40.007Z,3.45
2023-04-03T04:10:42.792Z,3.43
2023-04-03T04:11:44.534Z,3.43
2023-04-03T04:12:47.214Z,3.44
2023-04-03T04:13:48.946Z,3.44
2023-04-03T04:14:51.663Z,3.44
2023-04-03T04:15:53.380Z,3.43
2023-04-03T04:16:56.131Z,3.44
2023-04-03T04:17:58.131Z,3.42
2023-04-03T04:19:00.876Z,3.42
2023-04-03T04:20:03.369Z,3.42
2023-04-03T04:21:06.092Z,3.42
2023-04-03T04:22:07.838Z,3.41
2023-04-03T04:23:10.564Z,3.41
2023-04-03T04:24:13.685Z,3.40
2023-04-03T04:25:16.689Z,3.42
2023-04-03T04:26:19.369Z,3.42
2023-04-03T04:27:21.030Z,3.42
2023-04-03T04:28:23.795Z,3.42
2023-04-03T04:29:25.648Z,3.43
2023-04-03T04:30:28.485Z,3.41
2023-04-03T04:31:30.327Z,3.41
2023-04-03T04:32:33.242Z,3.41
2023-04-03T04:33:34.967Z,3.41
2023-04-03T04:34:37.739Z,3.41
2023-04-03T04:35:39.743Z,3.40
2023-04-03T04:36:42.859Z,3.39
2023-04-03T04:37:44.756Z,3.37
2023-04-03T04:38:47.490Z,3.36
2023-04-03T04:39:50.873Z,3.35
2023-04-03T04:40:53.625Z,3.34
2023-04-03T04:41:55.601Z,3.35
2023-04-03T04:42:58.592Z,3.31
2023-04-03T04:44:00.353Z,3.31
2023-04-03T04:45:03.045Z,3.30
2023-04-03T04:46:06.484Z,3.32
2023-04-03T04:47:09.289Z,3.32
2023-04-03T04:48:11.111Z,3.31
2023-04-03T04:49:13.829Z,3.31
2023-04-03T04:50:15.920Z,3.32
2023-04-03T04:51:18.615Z,3.32
2023-04-03T04:52:20.343Z,3.30
2023-04-03T04:53:23.093Z,3.29
2023-04-03T04:54:25.010Z,3.28
2023-04-03T04:55:29.080Z,3.25
2023-04-03T04:56:30.868Z,3.26
2023-04-03T04:57:33.595Z,3.23
2023-04-03T04:58:35.455Z,3.23
2023-04-03T04:59:38.178Z,3.21
2023-04-03T05:00:39.976Z,3.20
2023-04-03T05:01:42.722Z,3.19
2023-04-03T05:02:45.555Z,3.19
2023-04-03T05:03:48.840Z,3.20
2023-04-03T05:04:53.098Z,3.19
2023-04-03T05:05:54.995Z,3.19
2023-04-03T05:06:57.616Z,3.19
2023-04-03T05:08:00.104Z,3.17
2023-04-03T05:09:03.252Z,3.17
2023-04-03T05:10:06.539Z,3.20
2023-04-03T05:11:10.813Z,3.17
2023-04-03T05:12:12.621Z,3.18
2023-04-03T05:13:15.749Z,3.18
2023-04-03T05:14:17.752Z,3.18
2023-04-03T05:15:20.471Z,3.19
2023-04-03T05:16:22.415Z,3.19
2023-04-03T05:17:25.186Z,3.20
2023-04-03T05:18:26.996Z,3.19
2023-04-03T05:19:29.788Z,3.17
2023-04-03T05:20:31.783Z,3.18
2023-04-03T05:21:34.453Z,3.18
2023-04-03T05:22:36.151Z,3.20
2023-04-03T05:23:38.845Z,3.20
2023-04-03T05:24:40.728Z,3.19
2023-04-03T05:25:44.898Z,3.20
2023-04-03T05:26:47.975Z,3.21
2023-04-03T05:27:50.994Z,3.19
2023-04-03T05:28:52.791Z,3.18
2023-04-03T05:29:55.797Z,3.19
2023-04-03T05:30:59.961Z,3.21
2023-04-03T05:32:01.724Z,3.22
2023-04-03T05:33:04.590Z,3.24
2023-04-03T05:34:06.860Z,3.27
2023-04-03T05:35:10.559Z,3.30
2023-04-03T05:36:13.740Z,3.32
2023-04-03T05:37:15.612Z,3.36
2023-04-03T05:38:18.362Z,3.39
2023-04-03T05:39:20.306Z,3.41
2023-04-03T05:40:23.140Z,3.44
2023-04-03T05:41:25.090Z,3.46
2023-04-03T05:42:29.187Z,3.48
2023-04-03T05:43:31.121Z,3.51
2023-04-03T05:44:33.869Z,3.54
2023-04-03T05:45:35.616Z,3.57
2023-04-03T05:46:38.434Z,3.59
2023-04-03T05:47:40.514Z,3.63
2023-04-03T05:48:43.580Z,3.66
2023-04-03T05:49:46.332Z,3.69
2023-04-03T05:50:49.113Z,3.71
2023-04-03T05:51:52.377Z,3.73
2023-04-03T05:52:56.932Z,3.77
2023-04-03T05:54:13.529Z,3.79
2023-04-03T05:55:16.459Z,3.80
2023-04-03T05:56:18.245Z,3.81
2023-04-03T05:57:21.245Z,3.85
2023-04-03T05:58:24.542Z,3.85
2023-04-03T05:59:27.243Z,3.88
2023-04-03T06:00:29.986Z,3.91
2023-04-03T06:01:32.702Z,3.94
2023-04-03T06:02:34.545Z,3.98
2023-04-03T06:03:38.749Z,3.99
2023-04-03T06:04:42.996Z,4.01
2023-04-03T06:05:44.835Z,4.04
2023-04-03T06:06:49.161Z,4.07
2023-04-03T06:07:50.982Z,4.09
2023-04-03T06:08:54.092Z,4.11
2023-04-03T06:09:56.744Z,4.14
2023-04-03T06:10:59.528Z,4.12
2023-04-03T06:12:02.857Z,4.13
2023-04-03T06:13:04.562Z,4.16
2023-04-03T06:14:09.071Z,4.19
2023-04-03T06:15:11.262Z,4.20
2023-04-03T06:16:16.404Z,4.22
2023-04-03T06:17:19.203Z,4.26
2023-04-03T06:18:21.973Z,4.29
2023-04-03T06:19:24.118Z,4.31
2023-04-03T06:20:26.935Z,4.33
2023-04-03T06:21:29.702Z,4.34
2023-04-03T06:22:31.749Z,4.35
2023-04-03T06:23:34.377Z,4.38
2023-04-03T06:24:36.446Z,4.46
2023-04-03T06:25:39.322Z,4.45
2023-04-03T06:26:41.105Z,4.44
2023-04-03T06:27:43.829Z,4.44
2023-04-03T06:28:45.701Z,4.45
2023-04-03T06:29:50.192Z,4.48
2023-04-03T06:30:52.908Z,4.51
2023-04-03T06:31:54.675Z,4.55
2023-04-03T06:32:57.724Z,4.54
2023-04-03T06:34:00.568Z,4.56
2023-04-03T06:35:02.301Z,4.58
2023-04-03T06:36:06.934Z,4.55
2023-04-03T06:37:11.933Z,4.57
2023-04-03T06:38:14.623Z,4.61
2023-04-03T06:39:18.070Z,4.65
2023-04-03T06:40:23.971Z,4.72
2023-04-03T06:41:26.669Z,4.79
2023-04-03T06:42:29.354Z,4.87
2023-04-03T06:43:33.900Z,4.91
2023-04-03T06:44:37.229Z,4.98
2023-04-03T06:45:40.587Z,5.05
2023-04-03T06:46:43.749Z,5.08
2023-04-03T06:47:46.751Z,5.14
2023-04-03T06:48:49.010Z,5.16
2023-04-03T06:49:52.280Z,5.20
2023-04-03T06:50:54.424Z,5.22
2023-04-03T06:51:57.644Z,5.26
2023-04-03T06:52:59.534Z,5.28
2023-04-03T06:54:02.726Z,5.35
2023-04-03T06:55:06.206Z,5.38
2023-04-03T06:56:10.748Z,5.41
2023-04-03T06:57:13.621Z,5.43
2023-04-03T06:58:18.739Z,5.46
2023-04-03T06:59:22.199Z,5.48
2023-04-03T07:00:25.887Z,5.54
2023-04-03T07:01:31.210Z,5.56
2023-04-03T07:02:33.284Z,5.59
2023-04-03T07:03:36.505Z,5.61
2023-04-03T07:04:39.435Z,5.66
2023-04-03T07:05:45.470Z,5.69
2023-04-03T07:06:47.758Z,5.70
2023-04-03T07:07:50.787Z,5.78
2023-04-03T07:08:52.643Z,5.80
2023-04-03T07:09:55.726Z,5.83
2023-04-03T07:10:57.531Z,5.81
2023-04-03T07:12:00.271Z,5.78
2023-04-03T07:13:02.716Z,5.76
2023-04-03T07:14:06.494Z,5.77
2023-04-03T07:15:10.381Z,5.78
2023-04-03T07:16:12.560Z,5.77
2023-04-03T07:17:16.739Z,5.81
2023-04-03T07:18:19.431Z,5.81
2023-04-03T07:19:22.368Z,5.82
2023-04-03T07:20:24.198Z,5.85
2023-04-03T07:21:26.958Z,5.87
2023-04-03T07:22:29.624Z,5.88
2023-04-03T07:23:31.548Z,5.88
2023-04-03T07:24:34.302Z,5.88
2023-04-03T07:25:37.381Z,5.90
2023-04-03T07:26:40.219Z,5.91
2023-04-03T07:27:43.554Z,5.96
2023-04-03T07:28:45.501Z,6.02
2023-04-03T07:29:49.037Z,6.08
2023-04-03T07:30:52.117Z,6.11
2023-04-03T07:31:56.342Z,6.16
2023-04-03T07:33:00.567Z,6.19
2023-04-03T07:34:02.318Z,6.18
2023-04-03T07:35:05.766Z,6.20
2023-04-03T07:36:08.247Z,6.18
2023-04-03T07:37:11.031Z,6.18
2023-04-03T07:38:13.246Z,6.19
2023-04-03T07:39:15.948Z,6.20
2023-04-03T07:40:19.029Z,6.22
2023-04-03T07:41:23.918Z,6.24
2023-04-03T07:42:28.597Z,6.26
2023-04-03T07:43:30.484Z,6.29
2023-04-03T07:44:33.515Z,6.34
2023-04-03T07:45:37.033Z,6.40
2023-04-03T07:46:39.940Z,6.46
2023-04-03T07:47:41.694Z,6.47
2023-04-03T07:48:46.174Z,6.49
2023-04-03T07:49:49.304Z,6.51
2023-04-03T07:50:51.525Z,6.55
2023-04-03T07:51:54.308Z,6.59
2023-04-03T07:52:57.374Z,6.59
2023-04-03T07:54:00.449Z,6.61
2023-04-03T07:55:02.152Z,6.59
2023-04-03T07:56:04.887Z,6.62
2023-04-03T07:57:06.912Z,6.63
2023-04-03T07:58:09.621Z,6.66
2023-04-03T07:59:12.481Z,6.68
2023-04-03T08:00:16.166Z,6.67
2023-04-03T08:01:18.855Z,6.69
2023-04-03T08:02:21.534Z,6.71
2023-04-03T08:03:23.600Z,6.72
2023-04-03T08:04:28.231Z,6.72
2023-04-03T08:05:30.071Z,6.74
2023-04-03T08:06:45.858Z,6.77
2023-04-03T08:07:50.248Z,6.77
2023-04-03T08:08:53.058Z,6.80
2023-04-03T08:09:56.163Z,6.83
2023-04-03T08:11:00.985Z,6.84
2023-04-03T08:12:03.704Z,6.86
2023-04-03T08:13:06.825Z,6.87
2023-04-03T08:14:11.928Z,6.91
2023-04-03T08:15:13.645Z,6.94
2023-04-03T08:16:20.670Z,6.98
2023-04-03T08:17:23.592Z,6.97
2023-04-03T08:18:25.702Z,7.00
2023-04-03T08:19:29.779Z,6.97
2023-04-03T08:20:32.554Z,6.93
2023-04-03T08:21:35.475Z,6.95
2023-04-03T08:22:38.164Z,6.98
2023-04-03T08:23:42.109Z,7.03
2023-04-03T08:24:56.119Z,7.09
2023-04-03T08:26:01.016Z,7.14
2023-04-03T08:27:03.682Z,7.19
2023-04-03T08:28:05.697Z,7.23
2023-04-03T08:29:08.873Z,7.27
2023-04-03T08:30:11.564Z,7.27
2023-04-03T08:31:17.070Z,7.30
2023-04-03T08:32:19.997Z,7.34
2023-04-03T08:33:22.662Z,7.36
2023-04-03T08:34:25.365Z,7.42
2023-04-03T08:35:29.601Z,7.45
2023-04-03T08:36:32.416Z,7.48
2023-04-03T08:37:37.082Z,7.50
2023-04-03T08:38:38.747Z,7.50
2023-04-03T08:39:41.482Z,7.55
2023-04-03T08:40:44.174Z,7.59
2023-04-03T08:41:47.449Z,7.60
2023-04-03T08:42:57.090Z,7.65
2023-04-03T08:44:15.725Z,7.70
2023-04-03T08:45:21.377Z,7.75
2023-04-03T08:46:25.445Z,7.68
2023-04-03T08:47:32.504Z,7.67
2023-04-03T08:48:37.829Z,7.68
2023-04-03T08:49:48.660Z,7.58
2023-04-03T08:50:55.787Z,7.49
2023-04-03T08:51:59.636Z,7.51
2023-04-03T08:53:06.058Z,7.57
2023-04-03T08:54:18.041Z,7.60
2023-04-03T08:55:25.521Z,7.60
2023-04-03T08:56:28.578Z,7.56
2023-04-03T08:57:33.704Z,7.52
2023-04-03T08:58:43.977Z,7.44
2023-04-03T08:59:47.017Z,7.37
2023-04-03T09:00:51.367Z,7.30
2023-04-03T09:01:53.483Z,7.25
2023-04-03T09:02:57.510Z,7.21
2023-04-03T09:04:03.142Z,7.23
2023-04-03T09:05:13.602Z,7.21
2023-04-03T09:06:19.774Z,7.16
2023-04-03T09:07:27.210Z,7.11
2023-04-03T09:08:31.677Z,7.11
2023-04-03T09:09:37.593Z,7.10
2023-04-03T09:10:41.154Z,7.17
2023-04-03T09:11:53.359Z,7.26
2023-04-03T09:13:02.293Z,7.32
2023-04-03T09:14:10.236Z,7.45
2023-04-03T09:15:27.744Z,7.60
2023-04-03T09:16:50.204Z,7.77
2023-04-03T09:18:02.122Z,7.92
2023-04-03T09:19:10.721Z,8.07
2023-04-03T09:20:21.433Z,8.19
2023-04-03T09:21:30.235Z,8.22
2023-04-03T09:22:41.972Z,8.25
2023-04-03T09:23:50.440Z,8.27
2023-04-03T09:24:59.139Z,8.30
2023-04-03T09:26:06.017Z,8.30
2023-04-03T09:27:12.085Z,8.39
2023-04-03T09:28:14.956Z,8.52
2023-04-03T09:29:21.642Z,8.63
2023-04-03T09:30:26.556Z,8.71
2023-04-03T09:31:33.356Z,8.76
2023-04-03T09:32:37.527Z,8.77
2023-04-03T09:33:41.973Z,8.74
2023-04-03T09:34:45.654Z,8.69
2023-04-03T09:35:49.724Z,8.59
2023-04-03T09:36:54.031Z,8.46
2023-04-03T09:38:00.814Z,8.40
2023-04-03T09:39:06.164Z,8.31
2023-04-03T09:40:31.004Z,8.20
2023-04-03T09:41:34.269Z,8.13
2023-04-03T09:42:55.370Z,7.96
2023-04-03T09:44:02.547Z,7.87
2023-04-03T09:45:07.710Z,7.79
2023-04-03T09:46:27.444Z,7.74
2023-04-03T09:47:31.285Z,7.71
2023-04-03T09:48:33.086Z,7.75
2023-04-03T09:49:35.766Z,7.75
2023-04-03T09:50:38.338Z,7.79
2023-04-03T09:51:42.412Z,7.84
2023-04-03T09:52:47.908Z,7.89
2023-04-03T09:53:49.657Z,7.90
2023-04-03T09:54:52.567Z,7.93
2023-04-03T09:55:55.330Z,7.92
2023-04-03T09:56:57.337Z,7.92
2023-04-03T09:58:01.513Z,7.93
2023-04-03T09:59:13.308Z,7.95
2023-04-03T10:00:24.023Z,8.05
2023-04-03T10:01:30.386Z,8.04
2023-04-03T10:02:37.329Z,8.10
2023-04-03T10:03:47.363Z,8.12
2023-04-03T10:05:06.266Z,8.16
2023-04-03T10:06:24.885Z,8.24
2023-04-03T10:07:36.030Z,8.40
2023-04-03T10:08:41.328Z,8.55
2023-04-03T10:09:57.164Z,8.74
2023-04-03T10:11:14.543Z,8.82
2023-04-03T10:12:22.189Z,8.85
2023-04-03T10:13:24.186Z,8.86
2023-04-03T10:14:27.195Z,8.92
2023-04-03T10:15:32.137Z,8.92
2023-04-03T10:16:38.804Z,8.90
2023-04-03T10:17:51.678Z,8.94
2023-04-03T10:19:02.330Z,8.92
2023-04-03T10:20:10.511Z,8.91
2023-04-03T10:21:27.134Z,8.91
2023-04-03T10:22:38.571Z,8.94
2023-04-03T10:23:45.767Z,9.01
2023-04-03T10:24:56.460Z,9.11
2023-04-03T10:26:07.124Z,9.27
2023-04-03T10:27:13.127Z,9.44
2023-04-03T10:28:21.364Z,9.59
2023-04-03T10:29:32.198Z,9.71
2023-04-03T10:30:41.744Z,9.74
2023-04-03T10:31:50.677Z,9.80
2023-04-03T10:32:59.708Z,9.91
2023-04-03T10:34:07.802Z,9.94
2023-04-03T10:35:15.806Z,9.96
2023-04-03T10:36:27.647Z,10.00
2023-04-03T10:37:37.674Z,10.06
2023-04-03T10:38:46.045Z,10.10
2023-04-03T10:39:54.685Z,10.10
2023-04-03T10:40:59.067Z,10.09
2023-04-03T10:42:16.623Z,10.08
2023-04-03T10:43:24.581Z,10.23
2023-04-03T10:44:33.843Z,10.27
2023-04-03T10:45:50.505Z,10.27
2023-04-03T10:46:55.342Z,10.27
2023-04-03T10:48:04.171Z,10.24
2023-04-03T10:49:24.740Z,10.19
2023-04-03T10:50:34.072Z,10.18
2023-04-03T10:51:42.374Z,10.21
2023-04-03T10:52:48.379Z,10.13
2023-04-03T10:53:57.460Z,10.09
2023-04-03T10:55:07.593Z,10.21
2023-04-03T10:56:15.248Z,10.33
2023-04-03T10:57:17.515Z,10.41
2023-04-03T10:58:23.339Z,10.45
2023-04-03T10:59:29.925Z,10.55
2023-04-03T11:00:38.369Z,10.60
2023-04-03T11:01:43.407Z,10.66
2023-04-03T11:02:51.288Z,10.73
2023-04-03T11:03:55.808Z,10.77
2023-04-03T11:05:02.005Z,10.85
2023-04-03T11:06:07.104Z,10.88
2023-04-03T11:07:12.644Z,10.91
2023-04-03T11:08:23.813Z,10.93
2023-04-03T11:09:29.624Z,10.94
2023-04-03T11:10:37.534Z,10.92
2023-04-03T11:11:42.157Z,10.94
2023-04-03T11:12:47.893Z,10.94
2023-04-03T11:13:55.531Z,10.92
2023-04-03T11:14:59.104Z,11.01
2023-04-03T11:16:01.531Z,11.13
2023-04-03T11:17:11.787Z,11.14
2023-04-03T11:18:17.936Z,11.28
2023-04-03T11:19:24.456Z,11.38
2023-04-03T11:20:34.028Z,11.38
2023-04-03T11:21:40.190Z,11.28
2023-04-03T11:22:46.232Z,11.17
2023-04-03T11:23:50.202Z,11.06
2023-04-03T11:25:00.052Z,11.00
2023-04-03T11:26:11.595Z,10.93
2023-04-03T11:27:17.763Z,10.87
2023-04-03T11:28:20.615Z,10.78
2023-04-03T11:29:35.007Z,10.76
2023-04-03T11:30:44.185Z,10.74
2023-04-03T11:32:04.342Z,10.76
2023-04-03T11:33:27.539Z,10.84
2023-04-03T11:34:37.998Z,10.94
2023-04-03T11:35:45.329Z,11.14
2023-04-03T11:36:50.575Z,11.29
2023-04-03T11:37:53.712Z,11.44
2023-04-03T11:38:58.299Z,11.51
2023-04-03T11:40:04.670Z,11.64
2023-04-03T11:41:08.819Z,11.75
2023-04-03T11:42:28.853Z,11.90
2023-04-03T11:43:33.062Z,12.03
2023-04-03T11:44:38.598Z,12.08
2023-04-03T11:45:52.908Z,12.13
2023-04-03T11:46:57.951Z,12.20
2023-04-03T11:48:09.877Z,12.27
2023-04-03T11:49:59.126Z,12.25
2023-04-03T11:51:03.279Z,12.29
2023-04-03T11:52:06.260Z,12.28
2023-04-03T11:53:28.465Z,12.24
2023-04-03T11:54:46.148Z,12.20
2023-04-03T11:56:01.289Z,12.19
2023-04-03T11:57:25.312Z,12.18
2023-04-03T11:58:29.851Z,12.17
2023-04-03T11:59:39.221Z,12.15
2023-04-03T12:00:53.088Z,12.16
2023-04-03T12:01:57.531Z,12.16
2023-04-03T12:02:59.506Z,12.10
2023-04-03T12:04:10.806Z,12.08
2023-04-03T12:05:30.478Z,12.08
2023-04-03T12:07:05.305Z,12.25
2023-04-03T12:08:46.126Z,12.42
2023-04-03T12:10:18.428Z,12.58
2023-04-03T12:11:36.467Z,12.69
2023-04-03T12:12:41.407Z,12.78
2023-04-03T12:14:05.844Z,12.92
2023-04-03T12:15:24.719Z,13.04
2023-04-03T12:16:29.099Z,13.13
2023-04-03T12:17:31.879Z,13.21
2023-04-03T12:19:03.733Z,13.33
2023-04-03T12:20:53.452Z,13.43
2023-04-03T12:22:16.145Z,13.48
2023-04-03T12:23:30.948Z,13.38
2023-04-03T12:24:35.105Z,13.40
2023-04-03T12:25:51.806Z,13.43
2023-04-03T12:27:07.359Z,13.49
2023-04-03T12:28:12.770Z,13.53
2023-04-03T12:29:18.737Z,13.45
2023-04-03T12:30:25.491Z,13.46
2023-04-03T12:31:37.026Z,13.46
2023-04-03T12:33:13.351Z,13.41
2023-04-03T12:34:27.469Z,13.44
2023-04-03T12:35:32.551Z,13.38
2023-04-03T12:36:44.917Z,13.29
2023-04-03T12:38:14.902Z,13.28
2023-04-03T12:39:38.726Z,13.39
2023-04-03T12:40:44.328Z,13.35
2023-04-03T12:41:53.282Z,13.39
2023-04-03T12:43:11.124Z,13.39
2023-04-03T12:44:46.842Z,13.34
2023-04-03T12:45:53.003Z,13.34
2023-04-03T12:46:56.172Z,13.35
2023-04-03T12:47:58.919Z,13.43
2023-04-03T12:49:00.824Z,13.52
2023-04-03T12:50:05.115Z,13.65
2023-04-03T12:51:07.957Z,13.73
2023-04-03T12:52:20.664Z,13.84
2023-04-03T12:53:24.576Z,13.93
2023-04-03T12:54:30.576Z,14.00
2023-04-03T12:55:33.292Z,14.02
2023-04-03T12:56:35.676Z,13.98
2023-04-03T12:57:38.445Z,13.89
2023-04-03T12:58:42.590Z,13.79
2023-04-03T12:59:46.489Z,13.69
2023-04-03T13:00:49.342Z,13.60
2023-04-03T13:01:54.922Z,13.51
2023-04-03T13:02:57.882Z,13.38
2023-04-03T13:04:00.879Z,13.29
2023-04-03T13:05:09.344Z,13.18
2023-04-03T13:06:19.470Z,13.09
2023-04-03T13:07:28.254Z,12.99
2023-04-03T13:08:31.591Z,12.87
2023-04-03T13:09:33.568Z,12.73
2023-04-03T13:10:45.869Z,12.60
2023-04-03T13:11:48.559Z,12.53
2023-04-03T13:12:51.554Z,12.52
2023-04-03T13:13:59.918Z,12.53
2023-04-03T13:15:05.912Z,12.57
2023-04-03T13:16:11.346Z,12.65
2023-04-03T13:17:15.321Z,12.77
2023-04-03T13:18:26.564Z,12.86
2023-04-03T13:19:30.218Z,12.97
2023-04-03T13:20:33.964Z,13.05
2023-04-03T13:21:37.223Z,13.18
2023-04-03T13:22:44.728Z,13.32
2023-04-03T13:23:55.240Z,13.50
2023-04-03T13:25:02.713Z,13.69
2023-04-03T13:26:07.429Z,13.83
2023-04-03T13:27:13.270Z,13.98
2023-04-03T13:28:19.374Z,14.01
2023-04-03T13:29:31.091Z,14.01
2023-04-03T13:30:37.599Z,13.95
2023-04-03T13:31:41.580Z,13.84
2023-04-03T13:32:44.788Z,13.70
2023-04-03T13:33:56.956Z,13.55
2023-04-03T13:35:08.172Z,13.45
2023-04-03T13:36:20.202Z,13.36
2023-04-03T13:37:23.705Z,13.33
2023-04-03T13:38:28.670Z,13.00
2023-04-03T13:39:37.906Z,12.96
2023-04-03T13:40:49.100Z,12.86
2023-04-03T13:41:53.257Z,12.85
2023-04-03T13:43:03.623Z,12.86
2023-04-03T13:44:31.676Z,12.74
2023-04-03T13:45:34.660Z,12.68
2023-04-03T13:46:37.597Z,12.64
2023-04-03T13:47:41.235Z,12.68
2023-04-03T13:48:45.711Z,12.68
2023-04-03T13:50:00.675Z,12.70
2023-04-03T13:51:06.081Z,12.44
2023-04-03T13:52:25.941Z,12.07
2023-04-03T13:53:29.247Z,11.90
2023-04-03T13:54:34.310Z,11.85
2023-04-03T13:55:58.749Z,11.94
2023-04-03T13:57:02.561Z,12.08
2023-04-03T13:58:23.208Z,12.25
2023-04-03T13:59:29.021Z,12.34
2023-04-03T14:00:38.293Z,12.51
2023-04-03T14:01:44.770Z,12.70
2023-04-03T14:02:49.985Z,12.83
2023-04-03T14:03:56.417Z,12.96
2023-04-03T14:05:02.224Z,13.03
2023-04-03T14:06:08.248Z,13.06
2023-04-03T14:07:10.033Z,13.05
2023-04-03T14:08:12.786Z,13.03
2023-04-03T14:09:15.613Z,13.00
2023-04-03T14:10:18.505Z,13.02
2023-04-03T14:11:24.652Z,13.00
2023-04-03T14:12:31.758Z,13.01
2023-04-03T14:13:34.168Z,12.92
2023-04-03T14:14:39.253Z,12.83
2023-04-03T14:15:43.334Z,12.86
2023-04-03T14:16:48.789Z,13.02
2023-04-03T14:17:52.558Z,13.17
2023-04-03T14:18:55.731Z,13.29
2023-04-03T14:19:59.266Z,13.38
2023-04-03T14:21:01.928Z,13.47
2023-04-03T14:22:14.642Z,13.55